Weather reports worldwide

Advertisment
Cuenca, Spain (8231): temperature & dewpoint: 12.01.2021 08:00:00 - 18.01.2021 08:00:00 (CET)Cuenca, Spain (8231): wind speed: 12.01.2021 08:00:00 - 18.01.2021 08:00:00 (CET)Cuenca, Spain (8231): wind direction: 12.01.2021 08:00:00 - 18.01.2021 08:00:00 (CET)Cuenca, Spain (8231): visibility: 12.01.2021 08:00:00 - 18.01.2021 08:00:00 (CET)Cuenca, Spain (8231): precipitation: 12.01.2021 08:00:00 - 18.01.2021 08:00:00 (CET)
Date & Time tt [°C] td [°C] ff [km/h] ff [kn] dd vv [km] rr [mm]
18.01.2021 08:00:00 - - - - - - -
18.01.2021 07:00:00 -2,1 -4,0 2 1 ESE 20 -
18.01.2021 06:00:00 -1,8 -4,0 2 1 SE 20 0,0
18.01.2021 05:00:00 -1,1 -3,1 2 1 E 20 0,0
18.01.2021 04:00:00 -1,0 -3,4 0 0 N 20 -
18.01.2021 03:00:00 -0,6 -3,8 2 1 WNW 20 0,0
18.01.2021 02:00:00 -0,2 -3,1 4 2 N 20 0,0
18.01.2021 01:00:00 0,0 -3,4 2 1 ESE 20 -
18.01.2021 00:00:00 1,0 -2,8 2 1 ENE 19 0,0
17.01.2021 23:00:00 2,2 -2,9 2 1 NW 20 0,0
17.01.2021 22:00:00 3,5 -3,1 2 1 N 20 -
17.01.2021 21:00:00 4,4 -3,2 4 2 NW 19 0,0
17.01.2021 20:00:00 4,9 -3,9 2 1 NW 20 0,0
17.01.2021 19:00:00 6,4 -5,3 4 2 W 20 -
17.01.2021 18:00:00 8,9 -5,0 5 3 W 20 0,0
17.01.2021 17:00:00 12,4 -5,2 8 4 W 20 0,0
17.01.2021 16:00:00 13,8 -4,9 8 4 NW 20 -
17.01.2021 15:00:00 13,8 -4,9 11 6 W 20 0,0
17.01.2021 14:00:00 14,1 -4,2 5 3 NNW 20 0,0
17.01.2021 13:00:00 12,2 -5,8 5 3 NW 20 -
17.01.2021 12:00:00 9,2 -7,5 5 3 N 20 0,0
17.01.2021 11:00:00 5,5 -6,7 4 2 N 20 0,0
17.01.2021 10:00:00 1,0 -7,8 5 3 N 20 -
17.01.2021 09:00:00 -1,8 -8,3 4 2 N 20 0,0
17.01.2021 08:00:00 -1,5 -7,8 2 1 SSE 20 0,0
17.01.2021 07:00:00 -1,1 -7,7 4 2 SSE 20 -
17.01.2021 06:00:00 -0,4 -7,4 2 1 S 20 0,0
17.01.2021 05:00:00 1,2 -9,2 5 3 NNE 20 0,0
17.01.2021 04:00:00 1,0 -8,0 4 2 N 20 -
17.01.2021 03:00:00 1,7 -8,2 4 2 N 20 0,0
17.01.2021 02:00:00 2,0 -8,2 4 2 NNW 20 0,0
17.01.2021 01:00:00 2,3 -8,2 4 2 NNW 20 -
17.01.2021 00:00:00 2,9 -7,9 4 2 NW 20 0,0
16.01.2021 23:00:00 3,2 -8,2 5 3 N 20 0,0
16.01.2021 22:00:00 3,0 -6,7 4 2 W 20 -
16.01.2021 21:00:00 3,3 -7,0 2 1 N 20 0,0
16.01.2021 20:00:00 4,4 -4,9 2 1 WNW 20 0,0
16.01.2021 19:00:00 5,9 -4,3 2 1 W 20 -
16.01.2021 18:00:00 8,6 -4,9 2 1 WSW 20 0,0
16.01.2021 17:00:00 11,6 -3,4 5 3 NW 20 0,0
16.01.2021 16:00:00 11,3 -3,3 8 4 W 20 -
16.01.2021 15:00:00 11,4 -2,4 5 3 SW 20 0,0
16.01.2021 14:00:00 10,1 -3,3 8 4 W 20 0,0
16.01.2021 13:00:00 9,5 -3,8 11 6 WNW 20 -
16.01.2021 12:00:00 9,2 -6,7 5 3 NNW 20 0,0
16.01.2021 11:00:00 5,9 -6,7 8 4 N 20 0,0
16.01.2021 10:00:00 2,9 -6,0 8 4 N 20 -
16.01.2021 09:00:00 0,5 -5,5 4 2 NNW 20 0,0
16.01.2021 08:00:00 0,5 -5,1 5 3 N 20 0,0
16.01.2021 07:00:00 0,3 -4,9 8 4 N 20 -
16.01.2021 06:00:00 0,4 -4,6 5 3 N 20 0,0
16.01.2021 05:00:00 0,7 -4,3 4 2 N 20 0,0
16.01.2021 04:00:00 0,9 -4,3 5 3 NNW 20 -
16.01.2021 03:00:00 0,0 -3,9 4 2 NNW 20 0,0
16.01.2021 02:00:00 0,9 -3,8 4 2 NNW 20 0,0
16.01.2021 01:00:00 0,6 -3,3 4 2 WNW 20 -
16.01.2021 00:00:00 2,0 -2,7 8 4 NNW 20 0,0
15.01.2021 23:00:00 1,8 -2,5 5 3 NNW 20 0,0
15.01.2021 22:00:00 2,4 -3,5 4 2 NNW 20 -
15.01.2021 21:00:00 3,5 -3,8 4 2 NNW 20 0,0
15.01.2021 20:00:00 2,6 -2,7 4 2 W 20 0,0
15.01.2021 19:00:00 3,8 -2,2 5 3 NW 20 -
15.01.2021 18:00:00 6,1 -1,8 8 4 NNW 20 0,0
15.01.2021 17:00:00 9,2 -1,0 9 5 NNW 20 0,0
15.01.2021 16:00:00 9,8 -2,8 9 5 N 20 -
15.01.2021 15:00:00 9,3 -3,6 8 4 N 20 0,0
15.01.2021 14:00:00 7,9 -1,6 9 5 NNW 20 0,0
15.01.2021 13:00:00 8,5 -0,3 4 2 NW 20 -
15.01.2021 12:00:00 6,4 -0,4 5 3 W 20 0,0
15.01.2021 11:00:00 3,3 -0,7 5 3 W 20 0,0
15.01.2021 10:00:00 -0,5 -1,8 2 1 WSW 20 -
15.01.2021 09:00:00 -2,2 -3,3 4 2 SSE 20 0,0
15.01.2021 08:00:00 -2,3 -3,1 4 2 SSW 20 0,0
15.01.2021 07:00:00 -2,2 -3,0 2 1 SW 20 -
15.01.2021 06:00:00 -2,2 -3,2 2 1 SW 20 0,0
15.01.2021 05:00:00 -2,0 -3,4 2 1 S 20 0,0
15.01.2021 04:00:00 -1,6 -2,9 5 3 ESE 20 -
15.01.2021 03:00:00 -0,8 -3,0 0 0 N 20 0,0
15.01.2021 02:00:00 0,5 -1,6 4 2 ESE 20 0,0
15.01.2021 01:00:00 1,4 -1,0 4 2 N 20 -
15.01.2021 00:00:00 1,7 -1,6 4 2 NNW 20 0,0
14.01.2021 23:00:00 1,8 -2,2 5 3 NW 20 0,0
14.01.2021 22:00:00 2,1 -4,2 4 2 W 20 -
14.01.2021 21:00:00 3,1 -5,3 4 2 NNW 20 0,0
14.01.2021 20:00:00 2,8 -5,1 4 2 W 20 0,0
14.01.2021 19:00:00 4,3 -4,2 2 1 W 20 -
14.01.2021 18:00:00 6,7 -4,4 4 2 S 20 0,0
14.01.2021 17:00:00 9,2 -4,1 4 2 SW 20 0,0
14.01.2021 16:00:00 9,6 -4,0 5 3 W 20 -
14.01.2021 15:00:00 10,9 -4,0 5 3 WSW 20 0,0
14.01.2021 14:00:00 9,8 -4,2 5 3 SW 20 0,0
14.01.2021 13:00:00 7,6 -4,5 4 2 S 20 -
14.01.2021 12:00:00 5,8 -4,1 4 2 SSW 19 0,0
14.01.2021 11:00:00 2,9 -6,0 4 2 W 20 0,0
14.01.2021 10:00:00 -0,6 -7,4 4 2 NNW 20 -
14.01.2021 09:00:00 -2,5 -8,4 8 4 NNW 20 0,0
14.01.2021 08:00:00 -3,2 -8,3 4 2 NNW 20 0,0
14.01.2021 07:00:00 -3,5 -7,8 5 3 NNW 20 -
14.01.2021 06:00:00 -3,6 -7,4 2 1 WSW 20 0,0
14.01.2021 05:00:00 -3,0 -7,3 4 2 NW 20 0,0
14.01.2021 04:00:00 -3,6 -7,0 2 1 SW 20 -
14.01.2021 03:00:00 -2,7 -6,2 2 1 SSW 20 0,0
14.01.2021 02:00:00 -2,0 -6,0 2 1 S 20 0,0
14.01.2021 01:00:00 -1,3 -5,3 2 1 N 20 -
14.01.2021 00:00:00 0,2 -5,2 4 2 NNW 20 0,0
13.01.2021 23:00:00 0,5 -4,9 4 2 NNW 20 0,0
13.01.2021 22:00:00 1,0 -4,1 4 2 NNW 20 -
13.01.2021 21:00:00 1,5 -3,4 4 2 NNW 20 0,0
13.01.2021 20:00:00 2,6 -3,1 2 1 SE 20 0,0
13.01.2021 19:00:00 4,1 -3,0 5 3 ESE 20 -
13.01.2021 18:00:00 7,1 -3,2 2 1 SW 20 0,0
13.01.2021 17:00:00 9,3 -2,7 4 2 W 20 0,0
13.01.2021 16:00:00 10,4 -2,0 5 3 NW 20 -
13.01.2021 15:00:00 9,8 -2,5 9 5 NW 20 0,0
13.01.2021 14:00:00 11,1 -4,2 8 4 NNW 20 0,0
13.01.2021 13:00:00 9,3 -3,6 4 2 NNW 20 -
13.01.2021 12:00:00 6,8 -5,2 8 4 N 20 0,0
13.01.2021 11:00:00 3,7 -5,8 8 4 NW 20 0,0
13.01.2021 10:00:00 -0,7 -6,9 8 4 NW 20 -
13.01.2021 09:00:00 -2,8 -7,3 5 3 N 9 0,0
13.01.2021 08:00:00 -3,9 -7,9 5 3 NNW 8 0,0
13.01.2021 07:00:00 -5,5 -9,2 4 2 NNW 20 -
13.01.2021 06:00:00 -5,8 -9,0 2 1 SSW 20 0,0
13.01.2021 05:00:00 -5,2 -8,6 2 1 W 13 0,0
13.01.2021 04:00:00 -4,7 -7,3 5 3 NNW 20 -
13.01.2021 03:00:00 -5,1 -7,9 2 1 NW 20 0,0
13.01.2021 02:00:00 -5,5 -8,6 2 1 ENE 19 0,0
13.01.2021 01:00:00 -4,8 -8,2 2 1 WNW 19 -
13.01.2021 00:00:00 -4,3 -8,2 2 1 SE 19 0,0
12.01.2021 23:00:00 -3,3 -7,6 2 1 SW 20 0,0
12.01.2021 22:00:00 -2,1 -6,7 4 2 SE 20 -
12.01.2021 21:00:00 -0,7 -6,5 4 2 NW 20 0,0
12.01.2021 20:00:00 0,3 -6,1 5 3 NW 20 0,0
12.01.2021 19:00:00 0,5 -5,9 4 2 W 20 -
12.01.2021 18:00:00 2,0 -6,6 4 2 WNW 20 0,0
12.01.2021 17:00:00 5,4 -6,2 8 4 NW 18 0,0
12.01.2021 16:00:00 5,6 -6,0 9 5 NW 20 -
12.01.2021 15:00:00 6,3 -5,1 5 3 W 20 0,0
12.01.2021 14:00:00 5,2 -5,5 5 3 WNW 20 0,0
12.01.2021 13:00:00 2,7 -7,0 4 2 SW 20 -
12.01.2021 12:00:00 -0,8 -9,0 4 2 SW 17 0,0
12.01.2021 11:00:00 -3,8 -9,8 4 2 WNW 19 0,0
12.01.2021 10:00:00 -7,4 -12,3 5 3 N 20 -
12.01.2021 09:00:00 -10,6 -13,7 2 1 SW - 0,0
12.01.2021 08:00:00 -10,2 -14,0 4 2 NE 6 0,0

tt = temperature
td = dewpoint
ff = wind speed
dd = wind direction
vv = visibility
rr = precipitation

Next stations